Time;durP1;ratioP1;P1;durP2;ratioP2;P2;SDS_P1;SDS_P2;PMS_P1;PMS_P2;Temp;Humidity;BMP_temperature;BMP_pressure;BME280_temperature;BME280_humidity;BME280_pressure;Samples;Min_cycle;Max_cycle;Signal;HPM_P1;HPM_P2
2021/01/13 00:01:56;;;;;;;;;;;22.90;33.80;;;;;;1591000;73;734;-72
2021/01/13 00:03:58;;;;;;;;;;;23.00;33.70;;;;;;1604634;74;714;-72
2021/01/13 00:05:59;;;;;;;;;;;23.00;33.70;;;;;;1590251;74;747;-74
2021/01/13 00:08:01;;;;;;;;;;;22.90;33.60;;;;;;1602221;73;758;-76
2021/01/13 00:10:03;;;;;;;;;;;22.90;33.60;;;;;;1592039;74;1944;-73
2021/01/13 00:12:07;;;;;;;;;;;22.90;33.70;;;;;;1603880;73;685;-73
2021/01/13 00:14:09;;;;;;;;;;;22.90;33.80;;;;;;1600560;74;1120;-71
2021/01/13 00:16:14;;;;;;;;;;;22.90;33.80;;;;;;1587898;74;717;-72
2021/01/13 00:18:16;;;;;;;;;;;22.90;33.80;;;;;;1589155;73;753;-72
2021/01/13 00:20:18;;;;;;;;;;;23.00;33.70;;;;;;1584637;74;682;-72
2021/01/13 00:22:20;;;;;;;;;;;23.00;33.60;;;;;;1583476;73;718;-71
2021/01/13 00:24:22;;;;;;;;;;;22.90;33.60;;;;;;1599142;74;1216;-72
2021/01/13 00:26:25;;;;;;;;;;;23.00;33.60;;;;;;1593410;74;718;-73
2021/01/13 00:28:27;;;;;;;;;;;22.90;33.60;;;;;;1619316;72;728;-72
2021/01/13 00:30:28;;;;;;;;;;;22.90;33.60;;;;;;1625968;72;1926;-69
2021/01/13 00:32:32;;;;;;;;;;;22.90;33.60;;;;;;1599328;73;619;-73
2021/01/13 00:34:34;;;;;;;;;;;22.90;33.60;;;;;;1593429;73;1135;-74
2021/01/13 00:36:36;;;;;;;;;;;22.90;33.60;;;;;;1600948;73;782;-71
2021/01/13 00:38:38;;;;;;;;;;;23.00;33.60;;;;;;1593768;73;804;-71
2021/01/13 00:40:39;;;;;;;;;;;22.90;33.60;;;;;;1599336;73;738;-71
2021/01/13 00:42:43;;;;;;;;;;;22.90;33.50;;;;;;1588363;73;768;-71
2021/01/13 00:44:45;;;;;;;;;;;22.90;33.60;;;;;;1593391;73;1703;-72
2021/01/13 00:46:47;;;;;;;;;;;22.90;33.50;;;;;;1598702;73;716;-72
2021/01/13 00:48:49;;;;;;;;;;;22.90;33.50;;;;;;1599607;73;763;-72
2021/01/13 00:50:51;;;;;;;;;;;22.90;33.50;;;;;;1601599;73;1928;-72
2021/01/13 00:52:53;;;;;;;;;;;22.90;33.60;;;;;;1625575;72;704;-72
2021/01/13 00:54:54;;;;;;;;;;;22.90;33.60;;;;;;1605695;73;1100;-73
2021/01/13 00:56:56;;;;;;;;;;;22.90;33.60;;;;;;1601301;73;745;-73
2021/01/13 00:58:58;;;;;;;;;;;22.90;33.50;;;;;;1597417;74;790;-71
2021/01/13 01:01:00;;;;;;;;;;;22.90;33.60;;;;;;1592757;73;823;-70
2021/01/13 01:03:02;;;;;;;;;;;22.90;33.60;;;;;;1604651;74;701;-72
2021/01/13 01:05:04;;;;;;;;;;;22.90;33.60;;;;;;1603885;73;1162;-72
2021/01/13 01:07:07;;;;;;;;;;;22.90;33.60;;;;;;1587155;74;733;-71
2021/01/13 01:09:09;;;;;;;;;;;22.90;33.60;;;;;;1596414;73;1909;-71
2021/01/13 01:11:11;;;;;;;;;;;22.90;33.60;;;;;;1601578;74;757;-72
2021/01/13 01:13:13;;;;;;;;;;;22.90;33.50;;;;;;1602055;74;695;-74
2021/01/13 01:15:15;;;;;;;;;;;22.90;33.60;;;;;;1602266;74;1172;-74
2021/01/13 01:17:17;;;;;;;;;;;22.90;33.60;;;;;;1605884;74;750;-71
2021/01/13 01:19:21;;;;;;;;;;;22.90;33.50;;;;;;1604427;73;765;-73
2021/01/13 01:21:23;;;;;;;;;;;22.90;33.60;;;;;;1599542;74;778;-75
2021/01/13 01:23:25;;;;;;;;;;;22.90;33.60;;;;;;1606021;74;717;-72
2021/01/13 01:25:27;;;;;;;;;;;22.90;33.60;;;;;;1610056;73;1136;-71
2021/01/13 01:27:29;;;;;;;;;;;22.90;33.60;;;;;;1592534;73;767;-72
2021/01/13 01:29:31;;;;;;;;;;;22.90;33.70;;;;;;1602900;74;1929;-71
2021/01/13 01:31:33;;;;;;;;;;;22.90;33.70;;;;;;1600986;73;720;-73
2021/01/13 01:33:34;;;;;;;;;;;22.90;33.70;;;;;;1605934;73;717;-72
2021/01/13 01:35:36;;;;;;;;;;;22.90;33.70;;;;;;1604329;73;1071;-70
2021/01/13 01:37:38;;;;;;;;;;;22.80;33.60;;;;;;1599653;74;707;-71
2021/01/13 01:39:40;;;;;;;;;;;22.80;33.70;;;;;;1604561;74;627;-73
2021/01/13 01:41:45;;;;;;;;;;;22.80;33.70;;;;;;1601172;73;642;-73
2021/01/13 01:43:47;;;;;;;;;;;22.80;33.60;;;;;;1605857;74;704;-72
2021/01/13 01:45:49;;;;;;;;;;;22.80;33.60;;;;;;1604134;73;1199;-71
2021/01/13 01:48:02;;;;;;;;;;;22.80;33.60;;;;;;1605842;74;626;-72
2021/01/13 01:50:04;;;;;;;;;;;22.80;33.60;;;;;;1605810;74;1922;-71
2021/01/13 01:52:13;;;;;;;;;;;22.80;33.50;;;;;;1606464;73;704;-73
2021/01/13 01:54:18;;;;;;;;;;;22.90;33.80;;;;;;1602943;73;1489;-67
2021/01/13 01:56:22;;;;;;;;;;;22.80;33.60;;;;;;1605084;74;706;-72
2021/01/13 01:58:26;;;;;;;;;;;22.90;33.70;;;;;;1602330;74;1639;-73
2021/01/13 02:00:30;;;;;;;;;;;22.80;33.80;;;;;;1596263;74;1761;-71
2021/01/13 02:02:33;;;;;;;;;;;22.80;33.90;;;;;;1630819;72;1456;-72
2021/01/13 02:04:34;;;;;;;;;;;22.80;33.90;;;;;;1624963;72;1194;-72
2021/01/13 02:06:38;;;;;;;;;;;22.90;34.10;;;;;;1612269;73;719;-72
2021/01/13 02:08:40;;;;;;;;;;;22.80;34.10;;;;;;1626069;72;1130;-71
2021/01/13 02:10:42;;;;;;;;;;;22.80;34.20;;;;;;1625074;72;1908;-73
2021/01/13 02:12:45;;;;;;;;;;;22.90;34.30;;;;;;1626501;73;689;-71
2021/01/13 02:14:47;;;;;;;;;;;22.80;34.30;;;;;;1622423;72;1212;-72
2021/01/13 02:16:50;;;;;;;;;;;22.80;34.20;;;;;;1619791;73;740;-75
2021/01/13 02:18:57;;;;;;;;;;;22.80;34.40;;;;;;1616748;73;648;-71
2021/01/13 02:20:56;;;;;;;;;;;22.90;34.50;;;;;;1623973;72;974;-72
2021/01/13 02:23:05;;;;;;;;;;;22.80;34.50;;;;;;1624232;72;673;-71
2021/01/13 02:25:15;;;;;;;;;;;22.80;34.60;;;;;;1629493;72;1140;-71
2021/01/13 02:27:24;;;;;;;;;;;22.80;34.60;;;;;;1626233;73;682;-71
2021/01/13 02:29:27;;;;;;;;;;;22.80;34.60;;;;;;1622613;72;1925;-74
2021/01/13 02:31:29;;;;;;;;;;;22.80;34.50;;;;;;1619774;72;703;-72
2021/01/13 02:33:33;;;;;;;;;;;22.80;34.60;;;;;;1608274;73;716;-69
2021/01/13 02:35:36;;;;;;;;;;;22.90;34.70;;;;;;1600065;72;1087;-72
2021/01/13 02:37:40;;;;;;;;;;;22.90;34.70;;;;;;1620479;73;980;-70
2021/01/13 02:39:44;;;;;;;;;;;22.90;34.70;;;;;;1625890;73;595;-72
2021/01/13 02:41:46;;;;;;;;;;;22.90;34.80;;;;;;1620069;72;699;-70
2021/01/13 02:43:55;;;;;;;;;;;22.90;34.90;;;;;;1624787;73;749;-71
2021/01/13 02:45:58;;;;;;;;;;;22.90;34.80;;;;;;1621495;72;1029;-71
2021/01/13 02:48:05;;;;;;;;;;;22.80;34.80;;;;;;1625804;72;730;-72
2021/01/13 02:50:07;;;;;;;;;;;22.90;34.90;;;;;;1623701;72;1925;-71
2021/01/13 02:52:13;;;;;;;;;;;22.90;34.90;;;;;;1623151;73;723;-71
2021/01/13 02:54:23;;;;;;;;;;;22.90;34.90;;;;;;1617940;72;1189;-71
2021/01/13 02:56:26;;;;;;;;;;;22.90;34.90;;;;;;1617017;73;1039;-70
2021/01/13 02:58:29;;;;;;;;;;;22.90;34.90;;;;;;1630124;72;766;-71
2021/01/13 03:00:31;;;;;;;;;;;22.90;34.90;;;;;;1623401;72;979;-72
2021/01/13 03:02:36;;;;;;;;;;;22.90;35.00;;;;;;1623659;72;805;-70
2021/01/13 03:04:39;;;;;;;;;;;22.80;35.00;;;;;;1620366;72;1141;-70
2021/01/13 03:06:42;;;;;;;;;;;22.90;35.10;;;;;;1626046;73;729;-70
2021/01/13 03:08:45;;;;;;;;;;;22.90;35.10;;;;;;1625955;72;795;-71
2021/01/13 03:10:47;;;;;;;;;;;22.90;35.10;;;;;;1626055;72;1902;-65
2021/01/13 03:12:49;;;;;;;;;;;22.90;35.00;;;;;;1621958;73;703;-70
2021/01/13 03:14:51;;;;;;;;;;;22.80;35.00;;;;;;1626561;72;1129;-71
2021/01/13 03:16:57;;;;;;;;;;;22.80;35.00;;;;;;1624763;73;701;-70
2021/01/13 03:19:01;;;;;;;;;;;22.90;35.10;;;;;;1623176;72;723;-70
2021/01/13 03:21:05;;;;;;;;;;;22.90;35.00;;;;;;1624996;73;1064;-70
2021/01/13 03:23:13;;;;;;;;;;;22.90;35.00;;;;;;1623256;72;703;-72
2021/01/13 03:25:15;;;;;;;;;;;22.90;35.10;;;;;;1622330;73;1105;-69
2021/01/13 03:27:17;;;;;;;;;;;22.90;35.10;;;;;;1627294;72;726;-70
2021/01/13 03:29:20;;;;;;;;;;;22.90;35.20;;;;;;1630188;72;966;-71
2021/01/13 03:31:22;;;;;;;;;;;22.90;35.20;;;;;;1627163;72;1896;-68
2021/01/13 03:33:25;;;;;;;;;;;22.90;35.20;;;;;;1626348;72;793;-72
2021/01/13 03:35:35;;;;;;;;;;;23.10;35.40;;;;;;1624497;72;1109;-70
2021/01/13 03:37:56;;;;;;;;;;;22.90;35.10;;;;;;1614546;73;950;-70
2021/01/13 03:39:58;;;;;;;;;;;22.90;35.40;;;;;;1622919;72;713;-69
2021/01/13 03:42:01;;;;;;;;;;;22.80;35.40;;;;;;1624432;73;711;-69
2021/01/13 03:44:03;;;;;;;;;;;22.90;35.70;;;;;;1622541;72;1661;-71
2021/01/13 03:46:09;;;;;;;;;;;22.80;35.70;;;;;;1619615;72;661;-70
2021/01/13 03:48:11;;;;;;;;;;;22.80;35.70;;;;;;1624451;72;712;-72
2021/01/13 03:50:15;;;;;;;;;;;22.80;35.80;;;;;;1621398;72;1920;-71
2021/01/13 03:52:16;;;;;;;;;;;22.80;35.80;;;;;;1621527;72;692;-73
2021/01/13 03:54:18;;;;;;;;;;;22.80;35.80;;;;;;1625971;72;1141;-74
2021/01/13 03:56:22;;;;;;;;;;;22.80;35.90;;;;;;1623193;73;766;-72
2021/01/13 03:58:35;;;;;;;;;;;22.80;35.90;;;;;;1620648;72;1151;-73
2021/01/13 04:00:55;;;;;;;;;;;22.80;35.80;;;;;;1625161;72;716;-70
2021/01/13 04:03:02;;;;;;;;;;;22.80;36.00;;;;;;1623467;72;753;-70
2021/01/13 04:05:18;;;;;;;;;;;22.80;36.00;;;;;;1613481;72;1224;-71
2021/01/13 04:07:20;;;;;;;;;;;22.70;36.20;;;;;;1622744;72;712;-74
2021/01/13 04:09:21;;;;;;;;;;;22.70;36.30;;;;;;1624660;72;732;-70
2021/01/13 04:11:24;;;;;;;;;;;22.60;36.50;;;;;;1625523;73;1915;-71
2021/01/13 04:13:27;;;;;;;;;;;22.60;36.60;;;;;;1619172;72;745;-72
2021/01/13 04:15:36;;;;;;;;;;;22.70;36.80;;;;;;1593151;73;1153;-73
2021/01/13 04:17:38;;;;;;;;;;;22.60;36.70;;;;;;1597421;73;725;-71
2021/01/13 04:19:39;;;;;;;;;;;22.60;36.90;;;;;;1624148;72;632;-72
2021/01/13 04:21:41;;;;;;;;;;;22.60;36.80;;;;;;1621670;72;770;-71
2021/01/13 04:23:44;;;;;;;;;;;22.60;36.90;;;;;;1624360;72;782;-72
2021/01/13 04:25:45;;;;;;;;;;;22.60;36.90;;;;;;1623791;72;1130;-71
2021/01/13 04:27:47;;;;;;;;;;;22.50;36.90;;;;;;1620595;72;649;-72
2021/01/13 04:29:49;;;;;;;;;;;22.60;36.80;;;;;;1616750;72;719;-74
2021/01/13 04:31:51;;;;;;;;;;;22.60;36.90;;;;;;1625678;72;1930;-75
2021/01/13 04:33:53;;;;;;;;;;;22.70;37.10;;;;;;1575816;73;791;-73
2021/01/13 04:35:55;;;;;;;;;;;22.60;37.10;;;;;;1584479;73;1074;-73
2021/01/13 04:37:57;;;;;;;;;;;22.60;37.10;;;;;;1618766;72;635;-71
2021/01/13 04:40:02;;;;;;;;;;;22.60;37.10;;;;;;1626876;72;748;-71
2021/01/13 04:42:05;;;;;;;;;;;22.70;37.20;;;;;;1594460;73;706;-72
2021/01/13 04:44:07;;;;;;;;;;;22.60;37.10;;;;;;1609470;72;1137;-71
2021/01/13 04:46:11;;;;;;;;;;;22.70;37.20;;;;;;1580052;73;717;-72
2021/01/13 04:48:19;;;;;;;;;;;22.60;37.20;;;;;;1615910;72;967;-71
2021/01/13 04:50:21;;;;;;;;;;;22.70;37.20;;;;;;1607600;72;1932;-71
2021/01/13 04:52:25;;;;;;;;;;;22.70;37.20;;;;;;1609704;72;674;-72
2021/01/13 04:54:26;;;;;;;;;;;22.70;37.10;;;;;;1612006;72;1181;-70
2021/01/13 04:56:28;;;;;;;;;;;22.60;37.10;;;;;;1611505;74;685;-69
2021/01/13 04:58:32;;;;;;;;;;;22.60;37.40;;;;;;1622265;72;716;-71
2021/01/13 05:00:52;;;;;;;;;;;22.70;37.50;;;;;;1623786;72;1601;-71
2021/01/13 05:03:08;;;;;;;;;;;22.70;37.60;;;;;;1625062;72;801;-74
2021/01/13 05:05:11;;;;;;;;;;;22.60;37.40;;;;;;1584293;73;1078;-71
2021/01/13 05:07:13;;;;;;;;;;;22.70;37.60;;;;;;1589923;73;1107;-71
2021/01/13 05:09:16;;;;;;;;;;;22.60;37.60;;;;;;1601719;73;703;-71
2021/01/13 05:11:18;;;;;;;;;;;22.60;37.40;;;;;;1594869;73;1911;-71
2021/01/13 05:13:20;;;;;;;;;;;22.60;37.40;;;;;;1605538;73;781;-72
2021/01/13 05:15:22;;;;;;;;;;;22.60;37.40;;;;;;1591858;74;1167;-71
2021/01/13 05:17:33;;;;;;;;;;;22.70;37.40;;;;;;1605097;74;719;-70
2021/01/13 05:19:46;;;;;;;;;;;22.70;37.30;;;;;;1595986;74;746;-70
2021/01/13 05:21:50;;;;;;;;;;;22.80;37.30;;;;;;1602752;73;781;-71
2021/01/13 05:23:53;;;;;;;;;;;22.80;37.20;;;;;;1601421;73;700;-69
2021/01/13 05:25:55;;;;;;;;;;;22.80;37.20;;;;;;1598877;73;1807;-70
2021/01/13 05:28:05;;;;;;;;;;;22.70;37.20;;;;;;1604084;73;789;-69
2021/01/13 05:30:09;;;;;;;;;;;22.80;37.10;;;;;;1597777;73;1039;-70
2021/01/13 05:32:10;;;;;;;;;;;22.80;37.30;;;;;;1597809;73;1954;-69
2021/01/13 05:34:12;;;;;;;;;;;22.70;37.20;;;;;;1606767;73;1162;-69
2021/01/13 05:36:14;;;;;;;;;;;22.80;37.30;;;;;;1599271;73;768;-69
2021/01/13 05:38:17;;;;;;;;;;;22.70;37.20;;;;;;1605128;74;724;-69
2021/01/13 05:40:19;;;;;;;;;;;22.80;37.30;;;;;;1599926;74;779;-72
2021/01/13 05:42:21;;;;;;;;;;;22.70;37.20;;;;;;1601979;74;743;-72
2021/01/13 05:44:23;;;;;;;;;;;22.70;37.30;;;;;;1598995;74;1138;-70
2021/01/13 05:46:25;;;;;;;;;;;22.70;37.30;;;;;;1599663;74;705;-70
2021/01/13 05:48:27;;;;;;;;;;;22.70;37.20;;;;;;1603635;73;729;-69
2021/01/13 05:50:29;;;;;;;;;;;22.70;37.30;;;;;;1600710;73;703;-71
2021/01/13 05:52:32;;;;;;;;;;;22.70;37.20;;;;;;1604571;73;1902;-71
2021/01/13 05:54:35;;;;;;;;;;;22.70;37.20;;;;;;1598133;73;1074;-69
2021/01/13 05:56:37;;;;;;;;;;;22.70;37.20;;;;;;1591529;74;732;-70
2021/01/13 05:58:39;;;;;;;;;;;22.80;37.20;;;;;;1602139;74;725;-73
2021/01/13 06:00:41;;;;;;;;;;;22.80;37.20;;;;;;1603764;74;705;-71
2021/01/13 06:02:43;;;;;;;;;;;22.80;37.80;;;;;;1601397;74;756;-70
2021/01/13 06:04:46;;;;;;;;;;;22.80;37.60;;;;;;1599357;73;1187;-69
2021/01/13 06:06:57;;;;;;;;;;;22.80;37.60;;;;;;1598241;74;708;-72
2021/01/13 06:09:01;;;;;;;;;;;22.80;37.60;;;;;;1597718;73;872;-70
2021/01/13 06:11:03;;;;;;;;;;;22.80;37.50;;;;;;1625974;72;1933;-70
2021/01/13 06:13:05;;;;;;;;;;;22.80;37.70;;;;;;1623878;72;663;-70
2021/01/13 06:15:08;;;;;;;;;;;22.80;37.70;;;;;;1623958;72;1188;-71
2021/01/13 06:17:19;;;;;;;;;;;22.80;37.80;;;;;;1602770;73;1257;-71
2021/01/13 06:19:23;;;;;;;;;;;22.90;37.70;;;;;;1594404;73;775;-70
2021/01/13 06:21:24;;;;;;;;;;;22.90;37.60;;;;;;1615739;72;958;-70
2021/01/13 06:23:29;;;;;;;;;;;22.90;37.50;;;;;;1616246;72;743;-70
2021/01/13 06:25:31;;;;;;;;;;;22.90;37.80;;;;;;1625393;72;1138;-68
2021/01/13 06:27:51;;;;;;;;;;;22.80;37.40;;;;;;1624303;72;687;-70
2021/01/13 06:29:54;;;;;;;;;;;22.90;37.70;;;;;;1619442;72;666;-71
2021/01/13 06:31:56;;;;;;;;;;;22.80;37.60;;;;;;1568953;74;1920;-69
2021/01/13 06:34:18;;;;;;;;;;;22.90;37.60;;;;;;1632259;72;690;-72
2021/01/13 06:36:21;;;;;;;;;;;22.90;37.60;;;;;;1599181;73;940;-73
2021/01/13 06:38:25;;;;;;;;;;;22.90;37.60;;;;;;1623974;72;718;-72
2021/01/13 06:40:27;;;;;;;;;;;22.90;37.50;;;;;;1607323;72;704;-72
2021/01/13 06:42:31;;;;;;;;;;;22.90;37.30;;;;;;1626438;72;702;-71
2021/01/13 06:44:43;;;;;;;;;;;22.90;37.40;;;;;;1622147;72;1077;-70
2021/01/13 06:46:44;;;;;;;;;;;22.90;37.50;;;;;;1624505;72;741;-71
2021/01/13 06:48:46;;;;;;;;;;;23.00;37.30;;;;;;1626723;72;758;-73
2021/01/13 06:50:49;;;;;;;;;;;23.00;37.30;;;;;;1624305;72;704;-71
2021/01/13 06:52:51;;;;;;;;;;;23.00;37.20;;;;;;1625989;72;1889;-71
2021/01/13 06:54:53;;;;;;;;;;;23.00;37.10;;;;;;1610095;72;1148;-71
2021/01/13 06:56:56;;;;;;;;;;;23.00;37.30;;;;;;1622766;72;702;-70
2021/01/13 06:59:01;;;;;;;;;;;23.00;37.40;;;;;;1614471;73;790;-70
2021/01/13 07:01:03;;;;;;;;;;;23.00;37.40;;;;;;1626315;72;705;-71
2021/01/13 07:03:21;;;;;;;;;;;23.00;37.40;;;;;;1624639;72;795;-71
2021/01/13 07:05:27;;;;;;;;;;;23.10;37.40;;;;;;1627709;72;1163;-72
2021/01/13 07:07:30;;;;;;;;;;;23.00;37.30;;;;;;1589011;73;909;-70
2021/01/13 07:09:35;;;;;;;;;;;23.00;37.30;;;;;;1592163;73;714;-70
2021/01/13 07:11:39;;;;;;;;;;;23.10;37.40;;;;;;1591958;73;1901;-70
2021/01/13 07:13:41;;;;;;;;;;;23.10;37.40;;;;;;1591313;72;720;-69
2021/01/13 07:15:43;;;;;;;;;;;23.00;37.20;;;;;;1608899;72;1139;-71
2021/01/13 07:17:45;;;;;;;;;;;23.10;37.30;;;;;;1604546;73;688;-66
2021/01/13 07:19:47;;;;;;;;;;;23.10;37.20;;;;;;1598464;73;730;-69
2021/01/13 07:21:49;;;;;;;;;;;23.10;37.10;;;;;;1587003;73;718;-72
2021/01/13 07:23:51;;;;;;;;;;;23.10;37.10;;;;;;1614128;72;698;-71
2021/01/13 07:25:54;;;;;;;;;;;23.10;37.10;;;;;;1602552;72;1099;-69
2021/01/13 07:27:57;;;;;;;;;;;23.10;37.10;;;;;;1611433;72;724;-70
2021/01/13 07:29:59;;;;;;;;;;;23.10;37.00;;;;;;1610114;72;688;-69
2021/01/13 07:32:01;;;;;;;;;;;23.10;37.10;;;;;;1627300;72;1935;-71
2021/01/13 07:34:05;;;;;;;;;;;23.00;37.10;;;;;;1597389;73;1111;-70
2021/01/13 07:36:06;;;;;;;;;;;23.10;37.30;;;;;;1589298;73;907;-69
2021/01/13 07:38:08;;;;;;;;;;;23.10;37.30;;;;;;1597649;73;759;-70
2021/01/13 07:40:24;;;;;;;;;;;23.00;37.10;;;;;;1596280;73;686;-71
2021/01/13 07:42:36;;;;;;;;;;;23.00;37.20;;;;;;1602611;73;622;-70
2021/01/13 07:44:39;;;;;;;;;;;23.00;37.10;;;;;;1580315;73;1140;-70
2021/01/13 07:46:43;;;;;;;;;;;23.00;37.10;;;;;;1596016;73;733;-70
2021/01/13 07:48:46;;;;;;;;;;;23.10;37.60;;;;;;1592093;73;1523;-69
2021/01/13 07:50:50;;;;;;;;;;;23.10;37.50;;;;;;1594091;74;1020;-72
2021/01/13 07:52:52;;;;;;;;;;;23.10;37.40;;;;;;1614613;72;1963;-70
2021/01/13 07:54:54;;;;;;;;;;;23.10;37.30;;;;;;1592878;73;1151;-70
2021/01/13 07:56:59;;;;;;;;;;;23.10;37.20;;;;;;1623626;72;732;-70
2021/01/13 07:59:18;;;;;;;;;;;23.10;37.10;;;;;;1632272;72;712;-70
2021/01/13 08:01:24;;;;;;;;;;;23.10;37.10;;;;;;1614327;72;713;-70
2021/01/13 08:03:43;;;;;;;;;;;23.10;37.30;;;;;;1619095;72;826;-71
2021/01/13 08:06:03;;;;;;;;;;;23.10;37.30;;;;;;1614091;72;1146;-67
2021/01/13 08:08:07;;;;;;;;;;;23.10;37.00;;;;;;1614342;72;787;-70
2021/01/13 08:10:09;;;;;;;;;;;23.10;37.10;;;;;;1618498;72;739;-71
2021/01/13 08:12:18;;;;;;;;;;;23.10;37.20;;;;;;1600715;72;1932;-71
2021/01/13 08:14:38;;;;;;;;;;;23.10;37.40;;;;;;1601104;72;1142;-70
2021/01/13 08:16:45;;;;;;;;;;;23.10;37.40;;;;;;1603686;74;735;-70
2021/01/13 08:19:05;;;;;;;;;;;23.10;37.30;;;;;;1611171;72;1145;-70
2021/01/13 08:21:09;;;;;;;;;;;23.10;37.30;;;;;;1611947;73;1073;-69
2021/01/13 08:23:16;;;;;;;;;;;23.10;37.30;;;;;;1607761;74;1179;-69
2021/01/13 08:25:18;;;;;;;;;;;23.10;37.30;;;;;;1588611;74;1258;-70
2021/01/13 08:27:18;;;;;;;;;;;23.10;37.40;;;;;;1604632;74;1113;-71
2021/01/13 08:29:21;;;;;;;;;;;23.10;37.30;;;;;;1607959;74;771;-71
2021/01/13 08:31:24;;;;;;;;;;;23.10;37.30;;;;;;1601579;73;781;-72
2021/01/13 08:33:27;;;;;;;;;;;23.20;37.20;;;;;;1583280;73;1862;-70
2021/01/13 08:35:35;;;;;;;;;;;23.10;37.30;;;;;;1577233;73;1147;-69
2021/01/13 08:37:37;;;;;;;;;;;23.10;37.10;;;;;;1596112;73;761;-70
2021/01/13 08:39:42;;;;;;;;;;;23.20;37.10;;;;;;1588164;73;854;-70
2021/01/13 08:41:43;;;;;;;;;;;23.20;37.00;;;;;;1598631;73;1008;-70
2021/01/13 08:43:58;;;;;;;;;;;23.20;37.10;;;;;;1584009;73;735;-67
2021/01/13 08:46:00;;;;;;;;;;;23.20;37.10;;;;;;1512945;74;1204;-72
2021/01/13 08:48:09;;;;;;;;;;;23.20;37.00;;;;;;1624232;72;678;-73
2021/01/13 08:50:11;;;;;;;;;;;23.20;37.00;;;;;;1623978;72;701;-68
2021/01/13 08:52:21;;;;;;;;;;;23.20;36.90;;;;;;1622100;72;1920;-72
2021/01/13 08:54:23;;;;;;;;;;;23.30;37.00;;;;;;1628204;72;1149;-70
2021/01/13 08:56:27;;;;;;;;;;;23.20;36.70;;;;;;1635503;72;724;-70
2021/01/13 08:58:29;;;;;;;;;;;23.20;36.60;;;;;;1626332;72;1149;-69
2021/01/13 09:00:31;;;;;;;;;;;23.20;36.70;;;;;;1625381;72;704;-73
2021/01/13 09:02:35;;;;;;;;;;;23.20;36.60;;;;;;1625150;72;711;-70
2021/01/13 09:04:55;;;;;;;;;;;23.30;36.70;;;;;;1605676;73;1265;-70
2021/01/13 09:07:01;;;;;;;;;;;23.30;36.80;;;;;;1595174;73;765;-68
2021/01/13 09:09:05;;;;;;;;;;;23.20;36.80;;;;;;1610114;72;1088;-69
2021/01/13 09:11:08;;;;;;;;;;;23.20;37.00;;;;;;1602247;74;847;-68
2021/01/13 09:13:28;;;;;;;;;;;23.30;37.10;;;;;;1624113;72;1929;-66
2021/01/13 09:15:30;;;;;;;;;;;23.30;36.70;;;;;;1613071;72;1125;-68
2021/01/13 09:17:33;;;;;;;;;;;23.40;36.00;;;;;;1596540;73;739;-69
2021/01/13 09:19:36;;;;;;;;;;;23.50;35.60;;;;;;1611417;72;803;-67
2021/01/13 09:21:40;;;;;;;;;;;23.50;35.30;;;;;;1603728;72;709;-69
2021/01/13 09:23:43;;;;;;;;;;;23.60;35.10;;;;;;1615607;72;972;-67
2021/01/13 09:25:45;;;;;;;;;;;23.50;34.90;;;;;;1624471;72;1134;-67
2021/01/13 09:27:48;;;;;;;;;;;23.50;34.80;;;;;;1620770;72;674;-67
2021/01/13 09:29:51;;;;;;;;;;;23.50;34.70;;;;;;1604897;72;763;-67
2021/01/13 09:32:12;;;;;;;;;;;23.60;34.60;;;;;;1595529;73;1917;-67
2021/01/13 09:34:15;;;;;;;;;;;23.50;34.50;;;;;;1597399;73;1136;-67
2021/01/13 09:36:19;;;;;;;;;;;23.50;34.40;;;;;;1621233;73;1383;-67
2021/01/13 09:38:27;;;;;;;;;;;23.50;34.40;;;;;;1623293;73;719;-67
2021/01/13 09:40:47;;;;;;;;;;;23.60;34.30;;;;;;1623184;72;708;-68
2021/01/13 09:42:56;;;;;;;;;;;23.50;34.20;;;;;;1623055;72;633;-64
2021/01/13 09:45:01;;;;;;;;;;;23.50;34.20;;;;;;1624220;72;1119;-68
2021/01/13 09:47:13;;;;;;;;;;;23.50;34.20;;;;;;1600456;72;696;-69
2021/01/13 09:49:15;;;;;;;;;;;23.40;34.10;;;;;;1575392;73;1128;-68
2021/01/13 09:51:18;;;;;;;;;;;23.40;34.00;;;;;;1618412;72;724;-68
2021/01/13 09:53:20;;;;;;;;;;;23.40;33.90;;;;;;1594669;73;1984;-68
2021/01/13 09:55:22;;;;;;;;;;;23.40;33.50;;;;;;1621276;72;1135;-68
2021/01/13 09:57:24;;;;;;;;;;;23.40;33.90;;;;;;1619167;72;821;-68
2021/01/13 09:59:26;;;;;;;;;;;23.50;33.90;;;;;;1588523;73;1208;-69
2021/01/13 10:01:29;;;;;;;;;;;23.50;33.80;;;;;;1616307;72;716;-68
2021/01/13 10:03:31;;;;;;;;;;;23.50;33.70;;;;;;1623430;72;735;-68
2021/01/13 10:05:33;;;;;;;;;;;23.50;33.70;;;;;;1615760;73;1099;-67
2021/01/13 10:07:35;;;;;;;;;;;23.50;33.60;;;;;;1619464;72;725;-69
2021/01/13 10:09:37;;;;;;;;;;;23.50;33.50;;;;;;1596074;74;823;-69
2021/01/13 10:11:39;;;;;;;;;;;23.40;33.10;;;;;;1586847;73;727;-68
2021/01/13 10:13:41;;;;;;;;;;;23.50;33.40;;;;;;1599029;74;1973;-70
2021/01/13 10:15:43;;;;;;;;;;;23.40;33.60;;;;;;1588563;73;1227;-71
2021/01/13 10:17:45;;;;;;;;;;;23.40;33.30;;;;;;1594761;74;829;-69
2021/01/13 10:19:47;;;;;;;;;;;23.40;32.60;;;;;;1601910;74;774;-71
2021/01/13 10:21:49;;;;;;;;;;;23.40;32.10;;;;;;1643779;72;819;-70
2021/01/13 10:23:51;;;;;;;;;;;23.40;31.00;;;;;;1594216;73;752;-73
2021/01/13 10:25:54;;;;;;;;;;;23.40;30.30;;;;;;1582687;74;1065;-70
2021/01/13 10:27:56;;;;;;;;;;;23.30;30.10;;;;;;1594264;73;1090;-70
2021/01/13 10:29:58;;;;;;;;;;;23.20;30.70;;;;;;1597286;74;770;-71
2021/01/13 10:32:00;;;;;;;;;;;23.10;30.20;;;;;;1596350;73;723;-71
2021/01/13 10:34:02;;;;;;;;;;;23.10;30.20;;;;;;1630231;72;1936;-72
2021/01/13 10:36:04;;;;;;;;;;;23.00;29.70;;;;;;1594551;73;719;-72
2021/01/13 10:38:06;;;;;;;;;;;23.10;29.40;;;;;;1628990;72;783;-74
2021/01/13 10:40:08;;;;;;;;;;;23.00;29.10;;;;;;1594973;73;702;-69
2021/01/13 10:42:10;;;;;;;;;;;23.00;28.90;;;;;;1626621;72;669;-72
2021/01/13 10:44:16;;;;;;;;;;;22.90;28.60;;;;;;1623710;72;1121;-71
2021/01/13 10:46:18;;;;;;;;;;;22.90;28.60;;;;;;1630140;72;728;-70
2021/01/13 10:48:20;;;;;;;;;;;22.80;28.40;;;;;;1631219;72;699;-69
2021/01/13 10:50:25;;;;;;;;;;;22.80;28.50;;;;;;1625297;72;720;-69
2021/01/13 10:52:27;;;;;;;;;;;22.60;28.60;;;;;;1619519;72;1947;-70
2021/01/13 10:54:29;;;;;;;;;;;22.60;28.60;;;;;;1623470;72;1228;-69
2021/01/13 10:56:33;;;;;;;;;;;22.50;28.30;;;;;;1624266;72;846;-69
2021/01/13 10:58:36;;;;;;;;;;;22.50;28.40;;;;;;1607902;72;690;-70
2021/01/13 11:00:38;;;;;;;;;;;22.50;28.60;;;;;;1600526;73;715;-69
2021/01/13 11:02:40;;;;;;;;;;;22.40;28.40;;;;;;1603038;73;723;-69
2021/01/13 11:04:45;;;;;;;;;;;22.40;28.20;;;;;;1601685;73;1141;-69
2021/01/13 11:06:47;;;;;;;;;;;22.40;28.40;;;;;;1604596;73;795;-74
2021/01/13 11:08:49;;;;;;;;;;;22.30;28.00;;;;;;1598142;73;863;-71
2021/01/13 11:10:51;;;;;;;;;;;22.30;28.30;;;;;;1588382;73;792;-72
2021/01/13 11:13:00;;;;;;;;;;;22.20;28.40;;;;;;1592932;73;1946;-72
2021/01/13 11:15:03;;;;;;;;;;;22.20;28.50;;;;;;1602520;74;1155;-71
2021/01/13 11:17:06;;;;;;;;;;;22.20;28.60;;;;;;1598606;73;609;-73
2021/01/13 11:19:08;;;;;;;;;;;22.20;28.60;;;;;;1605122;73;781;-75
2021/01/13 11:21:10;;;;;;;;;;;22.20;28.40;;;;;;1600434;73;816;-71
2021/01/13 11:23:12;;;;;;;;;;;22.20;28.20;;;;;;1611292;73;956;-70
2021/01/13 11:25:43;;;;;;;;;;;22.10;28.10;;;;;;1605472;73;1134;-70
2021/01/13 11:27:42;;;;;;;;;;;22.20;27.90;;;;;;1600642;73;964;-69
2021/01/13 11:30:03;;;;;;;;;;;22.20;28.00;;;;;;1602966;73;759;-71
2021/01/13 11:32:06;;;;;;;;;;;22.00;27.80;;;;;;1529178;76;769;-60
2021/01/13 11:34:08;;;;;;;;;;;22.20;29.20;;;;;;1533302;76;1931;-59
2021/01/13 11:36:10;;;;;;;;;;;22.00;28.10;;;;;;1519585;76;1218;-60
2021/01/13 11:38:30;;;;;;;;;;;22.00;28.40;;;;;;1501025;77;736;-59
2021/01/13 11:40:34;;;;;;;;;;;22.00;28.00;;;;;;1505619;77;812;-59
2021/01/13 11:42:54;;;;;;;;;;;22.00;27.80;;;;;;1514888;77;1697;-58
2021/01/13 11:45:03;;;;;;;;;;;22.00;27.60;;;;;;1508250;77;865;-59
2021/01/13 11:47:13;;;;;;;;;;;21.90;24.10;;;;;;1515947;77;1214;-58
2021/01/13 11:49:25;;;;;;;;;;;21.70;23.80;;;;;;1506875;77;719;-59
2021/01/13 11:51:27;;;;;;;;;;;21.60;25.00;;;;;;1498120;77;1945;-60
2021/01/13 11:53:29;;;;;;;;;;;21.50;26.10;;;;;;1505543;77;1935;-60
2021/01/13 11:55:31;;;;;;;;;;;21.60;26.60;;;;;;1511316;77;670;-59
2021/01/13 11:57:37;;;;;;;;;;;21.50;26.80;;;;;;1521205;77;1147;-62
2021/01/13 11:59:37;;;;;;;;;;;21.50;27.00;;;;;;1508067;77;1133;-61
2021/01/13 12:01:38;;;;;;;;;;;21.60;26.70;;;;;;1513543;77;618;-60
2021/01/13 12:03:40;;;;;;;;;;;21.70;26.80;;;;;;1509465;77;915;-59
2021/01/13 12:05:43;;;;;;;;;;;21.60;26.60;;;;;;1515772;77;800;-59
2021/01/13 12:07:47;;;;;;;;;;;21.60;26.50;;;;;;1504293;77;1111;-60
2021/01/13 12:10:07;;;;;;;;;;;21.70;26.40;;;;;;1513587;77;1787;-60
2021/01/13 12:12:09;;;;;;;;;;;21.70;26.50;;;;;;1512639;77;695;-59
2021/01/13 12:14:11;;;;;;;;;;;21.70;26.50;;;;;;1514770;76;1918;-59
2021/01/13 12:16:17;;;;;;;;;;;21.70;26.70;;;;;;1505535;77;1147;-59
2021/01/13 12:18:22;;;;;;;;;;;21.70;26.70;;;;;;1505516;77;999;-59
2021/01/13 12:20:30;;;;;;;;;;;21.70;26.60;;;;;;1510030;77;1673;-59
2021/01/13 12:22:33;;;;;;;;;;;21.60;26.70;;;;;;1509314;77;731;-59